sensor_id;sensor_type;location;lat;lon;timestamp;P1;durP1;ratioP1;P2;durP2;ratioP2
59766;SDS011;46248;58.364;25.582;2023-09-19T00:01:15;1.48;;;1.02;;
59766;SDS011;46248;58.364;25.582;2023-09-19T00:04:41;2.17;;;0.90;;
59766;SDS011;46248;58.364;25.582;2023-09-19T00:08:03;1.65;;;0.98;;
59766;SDS011;46248;58.364;25.582;2023-09-19T00:11:26;1.00;;;0.88;;
59766;SDS011;46248;58.364;25.582;2023-09-19T00:14:48;1.42;;;1.17;;
59766;SDS011;46248;58.364;25.582;2023-09-19T00:18:11;1.75;;;0.70;;
59766;SDS011;46248;58.364;25.582;2023-09-19T00:21:37;1.25;;;0.90;;
59766;SDS011;46248;58.364;25.582;2023-09-19T00:24:58;1.20;;;1.00;;
59766;SDS011;46248;58.364;25.582;2023-09-19T00:28:21;1.27;;;1.17;;
59766;SDS011;46248;58.364;25.582;2023-09-19T00:31:43;2.75;;;1.08;;
59766;SDS011;46248;58.364;25.582;2023-09-19T00:35:05;1.50;;;0.90;;
59766;SDS011;46248;58.364;25.582;2023-09-19T00:38:30;1.20;;;1.02;;
59766;SDS011;46248;58.364;25.582;2023-09-19T00:41:52;1.10;;;1.00;;
59766;SDS011;46248;58.364;25.582;2023-09-19T00:45:15;1.75;;;1.00;;
59766;SDS011;46248;58.364;25.582;2023-09-19T00:48:38;1.15;;;1.00;;
59766;SDS011;46248;58.364;25.582;2023-09-19T00:52:04;2.40;;;1.20;;
59766;SDS011;46248;58.364;25.582;2023-09-19T00:55:28;1.98;;;1.15;;
59766;SDS011;46248;58.364;25.582;2023-09-19T00:58:53;3.08;;;1.40;;
59766;SDS011;46248;58.364;25.582;2023-09-19T01:02:15;2.25;;;1.48;;
59766;SDS011;46248;58.364;25.582;2023-09-19T01:05:37;2.35;;;1.75;;
59766;SDS011;46248;58.364;25.582;2023-09-19T01:08:59;3.92;;;1.60;;
59766;SDS011;46248;58.364;25.582;2023-09-19T01:12:26;2.88;;;1.60;;
59766;SDS011;46248;58.364;25.582;2023-09-19T01:15:55;2.10;;;1.40;;
59766;SDS011;46248;58.364;25.582;2023-09-19T01:23:35;4.07;;;1.90;;
59766;SDS011;46248;58.364;25.582;2023-09-19T01:27:15;2.88;;;1.73;;
59766;SDS011;46248;58.364;25.582;2023-09-19T01:34:14;2.55;;;1.50;;
59766;SDS011;46248;58.364;25.582;2023-09-19T01:37:36;3.20;;;1.60;;
59766;SDS011;46248;58.364;25.582;2023-09-19T01:41:00;3.60;;;2.20;;
59766;SDS011;46248;58.364;25.582;2023-09-19T01:44:29;2.78;;;2.30;;
59766;SDS011;46248;58.364;25.582;2023-09-19T01:48:00;3.30;;;2.30;;
59766;SDS011;46248;58.364;25.582;2023-09-19T01:51:31;5.90;;;2.20;;
59766;SDS011;46248;58.364;25.582;2023-09-19T01:54:56;2.28;;;1.95;;
59766;SDS011;46248;58.364;25.582;2023-09-19T01:58:27;4.93;;;2.83;;
59766;SDS011;46248;58.364;25.582;2023-09-19T02:01:54;4.03;;;2.15;;
59766;SDS011;46248;58.364;25.582;2023-09-19T02:05:23;2.60;;;2.13;;
59766;SDS011;46248;58.364;25.582;2023-09-19T02:08:45;3.60;;;2.40;;
59766;SDS011;46248;58.364;25.582;2023-09-19T02:12:08;5.10;;;2.33;;
59766;SDS011;46248;58.364;25.582;2023-09-19T02:15:30;3.00;;;1.85;;
59766;SDS011;46248;58.364;25.582;2023-09-19T02:18:54;3.28;;;2.22;;
59766;SDS011;46248;58.364;25.582;2023-09-19T02:22:17;3.75;;;3.15;;
59766;SDS011;46248;58.364;25.582;2023-09-19T02:25:39;4.05;;;2.10;;
59766;SDS011;46248;58.364;25.582;2023-09-19T02:29:01;5.90;;;2.80;;
59766;SDS011;46248;58.364;25.582;2023-09-19T02:32:24;5.50;;;2.72;;
59766;SDS011;46248;58.364;25.582;2023-09-19T02:35:46;3.75;;;2.33;;
59766;SDS011;46248;58.364;25.582;2023-09-19T02:39:09;5.57;;;3.00;;
59766;SDS011;46248;58.364;25.582;2023-09-19T02:42:32;4.55;;;2.50;;
59766;SDS011;46248;58.364;25.582;2023-09-19T02:45:54;5.05;;;2.70;;
59766;SDS011;46248;58.364;25.582;2023-09-19T02:49:17;4.97;;;2.75;;
59766;SDS011;46248;58.364;25.582;2023-09-19T02:52:41;5.07;;;2.58;;
59766;SDS011;46248;58.364;25.582;2023-09-19T02:56:05;6.38;;;3.00;;
59766;SDS011;46248;58.364;25.582;2023-09-19T02:59:27;4.90;;;2.95;;
59766;SDS011;46248;58.364;25.582;2023-09-19T03:02:53;4.90;;;3.30;;
59766;SDS011;46248;58.364;25.582;2023-09-19T03:06:15;5.28;;;2.92;;
59766;SDS011;46248;58.364;25.582;2023-09-19T03:09:37;4.70;;;2.97;;
59766;SDS011;46248;58.364;25.582;2023-09-19T03:13:00;5.15;;;3.40;;
59766;SDS011;46248;58.364;25.582;2023-09-19T03:16:22;6.22;;;2.95;;
59766;SDS011;46248;58.364;25.582;2023-09-19T03:19:45;5.07;;;3.55;;
59766;SDS011;46248;58.364;25.582;2023-09-19T03:23:07;6.45;;;3.72;;
59766;SDS011;46248;58.364;25.582;2023-09-19T03:26:30;5.75;;;3.53;;
59766;SDS011;46248;58.364;25.582;2023-09-19T03:29:54;6.68;;;3.70;;
59766;SDS011;46248;58.364;25.582;2023-09-19T03:33:16;7.05;;;4.30;;
59766;SDS011;46248;58.364;25.582;2023-09-19T03:36:38;7.10;;;4.10;;
59766;SDS011;46248;58.364;25.582;2023-09-19T03:40:00;9.32;;;4.72;;
59766;SDS011;46248;58.364;25.582;2023-09-19T03:43:25;8.45;;;4.55;;
59766;SDS011;46248;58.364;25.582;2023-09-19T03:46:48;14.57;;;6.07;;
59766;SDS011;46248;58.364;25.582;2023-09-19T03:50:10;20.02;;;7.30;;
59766;SDS011;46248;58.364;25.582;2023-09-19T03:53:32;14.10;;;5.50;;
59766;SDS011;46248;58.364;25.582;2023-09-19T03:56:53;16.33;;;6.85;;
59766;SDS011;46248;58.364;25.582;2023-09-19T04:00:15;37.33;;;9.15;;
59766;SDS011;46248;58.364;25.582;2023-09-19T04:03:42;17.95;;;6.75;;
59766;SDS011;46248;58.364;25.582;2023-09-19T04:07:08;15.93;;;7.50;;
59766;SDS011;46248;58.364;25.582;2023-09-19T04:10:29;22.33;;;7.80;;
59766;SDS011;46248;58.364;25.582;2023-09-19T04:13:51;20.38;;;7.20;;
59766;SDS011;46248;58.364;25.582;2023-09-19T04:17:13;16.13;;;6.60;;
59766;SDS011;46248;58.364;25.582;2023-09-19T04:20:37;17.23;;;7.32;;
59766;SDS011;46248;58.364;25.582;2023-09-19T04:23:58;32.10;;;8.50;;
59766;SDS011;46248;58.364;25.582;2023-09-19T04:27:20;18.20;;;7.95;;
59766;SDS011;46248;58.364;25.582;2023-09-19T04:30:43;24.90;;;8.07;;
59766;SDS011;46248;58.364;25.582;2023-09-19T04:34:05;49.15;;;11.00;;
59766;SDS011;46248;58.364;25.582;2023-09-19T04:37:29;23.05;;;9.13;;
59766;SDS011;46248;58.364;25.582;2023-09-19T04:40:56;26.63;;;8.60;;
59766;SDS011;46248;58.364;25.582;2023-09-19T04:44:19;18.63;;;7.30;;
59766;SDS011;46248;58.364;25.582;2023-09-19T04:47:41;23.80;;;9.55;;
59766;SDS011;46248;58.364;25.582;2023-09-19T04:51:04;34.20;;;11.20;;
59766;SDS011;46248;58.364;25.582;2023-09-19T04:54:27;31.45;;;10.73;;
59766;SDS011;46248;58.364;25.582;2023-09-19T04:57:49;26.17;;;10.35;;
59766;SDS011;46248;58.364;25.582;2023-09-19T05:01:12;26.05;;;9.90;;
59766;SDS011;46248;58.364;25.582;2023-09-19T05:04:35;22.42;;;8.63;;
59766;SDS011;46248;58.364;25.582;2023-09-19T05:07:57;22.67;;;8.60;;
59766;SDS011;46248;58.364;25.582;2023-09-19T05:11:27;20.57;;;9.37;;
59766;SDS011;46248;58.364;25.582;2023-09-19T05:14:50;23.70;;;9.68;;
59766;SDS011;46248;58.364;25.582;2023-09-19T05:18:11;20.45;;;9.20;;
59766;SDS011;46248;58.364;25.582;2023-09-19T05:21:34;22.20;;;10.10;;
59766;SDS011;46248;58.364;25.582;2023-09-19T05:24:55;22.15;;;10.05;;
59766;SDS011;46248;58.364;25.582;2023-09-19T05:28:18;24.98;;;10.07;;
59766;SDS011;46248;58.364;25.582;2023-09-19T05:31:40;21.77;;;9.20;;
59766;SDS011;46248;58.364;25.582;2023-09-19T05:35:03;20.35;;;9.10;;
59766;SDS011;46248;58.364;25.582;2023-09-19T05:38:29;21.65;;;10.07;;
59766;SDS011;46248;58.364;25.582;2023-09-19T05:41:53;22.77;;;8.82;;
59766;SDS011;46248;58.364;25.582;2023-09-19T05:45:16;20.50;;;8.80;;
59766;SDS011;46248;58.364;25.582;2023-09-19T05:48:42;19.35;;;9.05;;
59766;SDS011;46248;58.364;25.582;2023-09-19T05:52:04;20.48;;;9.18;;
59766;SDS011;46248;58.364;25.582;2023-09-19T05:55:26;24.13;;;11.35;;
59766;SDS011;46248;58.364;25.582;2023-09-19T05:58:49;15.88;;;8.02;;
59766;SDS011;46248;58.364;25.582;2023-09-19T06:02:15;21.35;;;9.32;;
59766;SDS011;46248;58.364;25.582;2023-09-19T06:05:37;22.33;;;11.50;;
59766;SDS011;46248;58.364;25.582;2023-09-19T06:09:01;22.58;;;10.75;;
59766;SDS011;46248;58.364;25.582;2023-09-19T06:12:23;19.55;;;10.10;;
59766;SDS011;46248;58.364;25.582;2023-09-19T06:15:45;18.98;;;10.00;;
59766;SDS011;46248;58.364;25.582;2023-09-19T06:19:09;23.40;;;11.80;;
59766;SDS011;46248;58.364;25.582;2023-09-19T06:22:32;19.33;;;10.27;;
59766;SDS011;46248;58.364;25.582;2023-09-19T06:25:54;20.08;;;10.50;;
59766;SDS011;46248;58.364;25.582;2023-09-19T06:29:17;18.42;;;10.07;;
59766;SDS011;46248;58.364;25.582;2023-09-19T06:32:40;19.13;;;9.93;;
59766;SDS011;46248;58.364;25.582;2023-09-19T06:36:05;16.20;;;9.20;;
59766;SDS011;46248;58.364;25.582;2023-09-19T06:39:28;16.05;;;9.80;;
59766;SDS011;46248;58.364;25.582;2023-09-19T06:42:51;18.70;;;11.50;;
59766;SDS011;46248;58.364;25.582;2023-09-19T06:46:14;21.58;;;11.50;;
59766;SDS011;46248;58.364;25.582;2023-09-19T06:49:35;17.13;;;11.50;;
59766;SDS011;46248;58.364;25.582;2023-09-19T06:52:59;16.27;;;9.75;;
59766;SDS011;46248;58.364;25.582;2023-09-19T06:56:22;15.85;;;10.55;;
59766;SDS011;46248;58.364;25.582;2023-09-19T06:59:45;17.67;;;11.57;;
59766;SDS011;46248;58.364;25.582;2023-09-19T07:03:07;15.82;;;9.90;;
59766;SDS011;46248;58.364;25.582;2023-09-19T07:06:31;15.18;;;10.13;;
59766;SDS011;46248;58.364;25.582;2023-09-19T07:09:55;19.80;;;12.38;;
59766;SDS011;46248;58.364;25.582;2023-09-19T07:13:16;14.93;;;9.82;;
59766;SDS011;46248;58.364;25.582;2023-09-19T07:16:39;15.15;;;10.27;;
59766;SDS011;46248;58.364;25.582;2023-09-19T07:20:03;15.63;;;10.43;;
59766;SDS011;46248;58.364;25.582;2023-09-19T07:23:28;26.10;;;13.38;;
59766;SDS011;46248;58.364;25.582;2023-09-19T07:26:51;16.67;;;10.68;;
59766;SDS011;46248;58.364;25.582;2023-09-19T07:30:13;13.57;;;9.32;;
59766;SDS011;46248;58.364;25.582;2023-09-19T07:33:35;18.67;;;11.18;;
59766;SDS011;46248;58.364;25.582;2023-09-19T07:36:57;15.10;;;10.23;;
59766;SDS011;46248;58.364;25.582;2023-09-19T07:40:19;14.15;;;9.57;;
59766;SDS011;46248;58.364;25.582;2023-09-19T07:43:42;15.90;;;11.10;;
59766;SDS011;46248;58.364;25.582;2023-09-19T07:47:04;12.73;;;9.43;;
59766;SDS011;46248;58.364;25.582;2023-09-19T07:50:26;14.52;;;9.95;;
59766;SDS011;46248;58.364;25.582;2023-09-19T07:53:49;14.45;;;10.70;;
59766;SDS011;46248;58.364;25.582;2023-09-19T07:57:10;13.48;;;10.30;;
59766;SDS011;46248;58.364;25.582;2023-09-19T08:00:34;15.23;;;9.82;;
59766;SDS011;46248;58.364;25.582;2023-09-19T08:03:55;13.85;;;9.25;;
59766;SDS011;46248;58.364;25.582;2023-09-19T08:07:17;15.95;;;11.00;;
59766;SDS011;46248;58.364;25.582;2023-09-19T08:10:39;14.05;;;9.48;;
59766;SDS011;46248;58.364;25.582;2023-09-19T08:14:02;11.57;;;8.20;;
59766;SDS011;46248;58.364;25.582;2023-09-19T08:17:27;13.45;;;9.43;;
59766;SDS011;46248;58.364;25.582;2023-09-19T08:20:49;12.18;;;8.75;;
59766;SDS011;46248;58.364;25.582;2023-09-19T08:24:12;12.00;;;8.73;;
59766;SDS011;46248;58.364;25.582;2023-09-19T08:27:35;11.38;;;8.10;;
59766;SDS011;46248;58.364;25.582;2023-09-19T08:31:00;12.73;;;8.52;;
59766;SDS011;46248;58.364;25.582;2023-09-19T08:34:26;11.57;;;9.17;;
59766;SDS011;46248;58.364;25.582;2023-09-19T08:37:48;12.27;;;9.35;;
59766;SDS011;46248;58.364;25.582;2023-09-19T08:41:10;18.90;;;11.75;;
59766;SDS011;46248;58.364;25.582;2023-09-19T08:44:32;24.10;;;14.38;;
59766;SDS011;46248;58.364;25.582;2023-09-19T08:48:10;27.10;;;16.67;;
59766;SDS011;46248;58.364;25.582;2023-09-19T08:51:41;20.30;;;14.23;;
59766;SDS011;46248;58.364;25.582;2023-09-19T08:55:06;35.05;;;21.83;;
59766;SDS011;46248;58.364;25.582;2023-09-19T08:58:31;17.30;;;12.15;;
59766;SDS011;46248;58.364;25.582;2023-09-19T09:02:01;9.80;;;8.48;;
59766;SDS011;46248;58.364;25.582;2023-09-19T09:05:24;14.70;;;10.57;;
59766;SDS011;46248;58.364;25.582;2023-09-19T09:08:48;10.95;;;8.85;;
59766;SDS011;46248;58.364;25.582;2023-09-19T09:12:12;10.80;;;9.45;;
59766;SDS011;46248;58.364;25.582;2023-09-19T09:15:35;11.50;;;9.35;;
59766;SDS011;46248;58.364;25.582;2023-09-19T09:18:58;11.02;;;8.57;;
59766;SDS011;46248;58.364;25.582;2023-09-19T09:22:21;11.80;;;8.75;;
59766;SDS011;46248;58.364;25.582;2023-09-19T09:25:49;10.65;;;8.75;;
59766;SDS011;46248;58.364;25.582;2023-09-19T09:29:15;10.30;;;7.88;;
59766;SDS011;46248;58.364;25.582;2023-09-19T09:32:40;9.55;;;7.82;;
59766;SDS011;46248;58.364;25.582;2023-09-19T09:36:37;11.45;;;9.20;;
59766;SDS011;46248;58.364;25.582;2023-09-19T09:40:02;9.73;;;7.40;;
59766;SDS011;46248;58.364;25.582;2023-09-19T09:43:41;10.52;;;7.57;;
59766;SDS011;46248;58.364;25.582;2023-09-19T09:47:06;8.30;;;7.43;;
59766;SDS011;46248;58.364;25.582;2023-09-19T09:50:46;11.07;;;8.20;;
59766;SDS011;46248;58.364;25.582;2023-09-19T09:54:16;10.55;;;8.35;;
59766;SDS011;46248;58.364;25.582;2023-09-19T09:57:39;11.48;;;8.00;;
59766;SDS011;46248;58.364;25.582;2023-09-19T10:01:03;9.80;;;7.90;;
59766;SDS011;46248;58.364;25.582;2023-09-19T10:04:30;11.15;;;8.55;;
59766;SDS011;46248;58.364;25.582;2023-09-19T10:07:57;10.88;;;8.05;;
59766;SDS011;46248;58.364;25.582;2023-09-19T10:11:33;11.77;;;7.90;;
59766;SDS011;46248;58.364;25.582;2023-09-19T10:14:59;10.00;;;7.78;;
59766;SDS011;46248;58.364;25.582;2023-09-19T10:18:25;10.80;;;8.68;;
59766;SDS011;46248;58.364;25.582;2023-09-19T10:21:49;9.07;;;7.97;;
59766;SDS011;46248;58.364;25.582;2023-09-19T10:25:12;9.57;;;7.60;;
59766;SDS011;46248;58.364;25.582;2023-09-19T10:28:33;11.15;;;9.02;;
59766;SDS011;46248;58.364;25.582;2023-09-19T10:31:59;9.65;;;7.78;;
59766;SDS011;46248;58.364;25.582;2023-09-19T10:35:26;9.45;;;7.72;;
59766;SDS011;46248;58.364;25.582;2023-09-19T10:38:48;9.52;;;7.80;;
59766;SDS011;46248;58.364;25.582;2023-09-19T10:42:16;9.43;;;7.60;;
59766;SDS011;46248;58.364;25.582;2023-09-19T10:45:41;11.10;;;7.93;;
59766;SDS011;46248;58.364;25.582;2023-09-19T10:49:07;9.77;;;7.82;;
59766;SDS011;46248;58.364;25.582;2023-09-19T10:52:33;10.43;;;8.35;;
59766;SDS011;46248;58.364;25.582;2023-09-19T10:56:02;8.60;;;7.03;;
59766;SDS011;46248;58.364;25.582;2023-09-19T10:59:34;9.55;;;7.75;;
59766;SDS011;46248;58.364;25.582;2023-09-19T11:03:16;8.48;;;7.00;;
59766;SDS011;46248;58.364;25.582;2023-09-19T11:06:40;12.02;;;7.15;;
59766;SDS011;46248;58.364;25.582;2023-09-19T11:10:05;8.65;;;7.50;;
59766;SDS011;46248;58.364;25.582;2023-09-19T11:13:31;12.95;;;8.07;;
59766;SDS011;46248;58.364;25.582;2023-09-19T11:21:00;8.60;;;6.95;;
59766;SDS011;46248;58.364;25.582;2023-09-19T11:36:41;8.45;;;6.93;;
59766;SDS011;46248;58.364;25.582;2023-09-19T11:40:05;10.05;;;6.90;;
59766;SDS011;46248;58.364;25.582;2023-09-19T11:43:36;8.38;;;6.88;;
59766;SDS011;46248;58.364;25.582;2023-09-19T11:47:02;9.82;;;7.10;;
59766;SDS011;46248;58.364;25.582;2023-09-19T11:50:24;14.40;;;8.13;;
59766;SDS011;46248;58.364;25.582;2023-09-19T11:53:48;10.95;;;6.55;;
59766;SDS011;46248;58.364;25.582;2023-09-19T11:57:10;10.13;;;7.30;;
59766;SDS011;46248;58.364;25.582;2023-09-19T12:00:41;8.27;;;5.80;;
59766;SDS011;46248;58.364;25.582;2023-09-19T12:04:07;6.18;;;5.55;;
59766;SDS011;46248;58.364;25.582;2023-09-19T12:07:32;8.43;;;5.93;;
59766;SDS011;46248;58.364;25.582;2023-09-19T12:11:04;7.50;;;6.10;;
59766;SDS011;46248;58.364;25.582;2023-09-19T12:14:28;7.65;;;6.13;;
59766;SDS011;46248;58.364;25.582;2023-09-19T12:17:50;10.18;;;6.20;;
59766;SDS011;46248;58.364;25.582;2023-09-19T12:21:22;7.80;;;6.25;;
59766;SDS011;46248;58.364;25.582;2023-09-19T12:24:47;9.95;;;6.60;;
59766;SDS011;46248;58.364;25.582;2023-09-19T12:28:11;8.63;;;6.55;;
59766;SDS011;46248;58.364;25.582;2023-09-19T12:31:33;8.75;;;6.05;;
59766;SDS011;46248;58.364;25.582;2023-09-19T12:34:57;9.35;;;6.75;;
59766;SDS011;46248;58.364;25.582;2023-09-19T12:38:25;7.40;;;6.00;;
59766;SDS011;46248;58.364;25.582;2023-09-19T12:41:48;11.18;;;6.05;;
59766;SDS011;46248;58.364;25.582;2023-09-19T12:45:12;6.55;;;5.47;;
59766;SDS011;46248;58.364;25.582;2023-09-19T12:48:35;17.88;;;9.18;;
59766;SDS011;46248;58.364;25.582;2023-09-19T12:51:58;9.00;;;6.68;;
59766;SDS011;46248;58.364;25.582;2023-09-19T12:55:23;7.00;;;5.60;;
59766;SDS011;46248;58.364;25.582;2023-09-19T12:58:49;6.22;;;5.63;;
59766;SDS011;46248;58.364;25.582;2023-09-19T13:02:14;6.05;;;5.45;;
59766;SDS011;46248;58.364;25.582;2023-09-19T13:05:48;7.07;;;5.32;;
59766;SDS011;46248;58.364;25.582;2023-09-19T13:09:10;12.35;;;6.25;;
59766;SDS011;46248;58.364;25.582;2023-09-19T13:12:36;8.98;;;6.25;;
59766;SDS011;46248;58.364;25.582;2023-09-19T13:15:59;8.23;;;5.43;;
59766;SDS011;46248;58.364;25.582;2023-09-19T13:19:37;7.72;;;5.20;;
59766;SDS011;46248;58.364;25.582;2023-09-19T13:23:01;10.07;;;6.25;;
59766;SDS011;46248;58.364;25.582;2023-09-19T13:26:30;6.43;;;5.82;;
59766;SDS011;46248;58.364;25.582;2023-09-19T13:29:53;8.20;;;5.70;;
59766;SDS011;46248;58.364;25.582;2023-09-19T13:33:15;7.07;;;5.38;;
59766;SDS011;46248;58.364;25.582;2023-09-19T13:36:41;8.18;;;6.07;;
59766;SDS011;46248;58.364;25.582;2023-09-19T13:40:03;9.80;;;6.65;;
59766;SDS011;46248;58.364;25.582;2023-09-19T13:43:25;7.97;;;6.32;;
59766;SDS011;46248;58.364;25.582;2023-09-19T13:46:50;11.68;;;6.18;;
59766;SDS011;46248;58.364;25.582;2023-09-19T13:50:14;10.63;;;6.57;;
59766;SDS011;46248;58.364;25.582;2023-09-19T13:53:36;7.03;;;5.20;;
59766;SDS011;46248;58.364;25.582;2023-09-19T13:56:58;10.20;;;7.50;;
59766;SDS011;46248;58.364;25.582;2023-09-19T14:00:20;8.43;;;6.40;;
59766;SDS011;46248;58.364;25.582;2023-09-19T14:03:44;8.35;;;6.22;;
59766;SDS011;46248;58.364;25.582;2023-09-19T14:07:07;7.38;;;5.55;;
59766;SDS011;46248;58.364;25.582;2023-09-19T14:10:30;8.77;;;6.72;;
59766;SDS011;46248;58.364;25.582;2023-09-19T14:13:52;6.18;;;5.40;;
59766;SDS011;46248;58.364;25.582;2023-09-19T14:17:17;7.55;;;5.70;;
59766;SDS011;46248;58.364;25.582;2023-09-19T14:20:40;7.18;;;5.90;;
59766;SDS011;46248;58.364;25.582;2023-09-19T14:24:02;8.57;;;6.40;;
59766;SDS011;46248;58.364;25.582;2023-09-19T14:27:26;6.95;;;5.47;;
59766;SDS011;46248;58.364;25.582;2023-09-19T14:30:47;7.88;;;5.63;;
59766;SDS011;46248;58.364;25.582;2023-09-19T14:34:10;7.13;;;6.07;;
59766;SDS011;46248;58.364;25.582;2023-09-19T14:37:32;7.25;;;5.50;;
59766;SDS011;46248;58.364;25.582;2023-09-19T14:40:58;8.15;;;5.85;;
59766;SDS011;46248;58.364;25.582;2023-09-19T14:44:21;7.95;;;6.07;;
59766;SDS011;46248;58.364;25.582;2023-09-19T14:47:43;9.45;;;5.78;;
59766;SDS011;46248;58.364;25.582;2023-09-19T14:51:07;7.57;;;6.13;;
59766;SDS011;46248;58.364;25.582;2023-09-19T14:54:31;7.82;;;5.85;;
59766;SDS011;46248;58.364;25.582;2023-09-19T14:57:54;9.23;;;6.55;;
59766;SDS011;46248;58.364;25.582;2023-09-19T15:01:18;9.07;;;6.57;;
59766;SDS011;46248;58.364;25.582;2023-09-19T15:04:40;7.53;;;6.13;;
59766;SDS011;46248;58.364;25.582;2023-09-19T15:08:02;9.38;;;7.05;;
59766;SDS011;46248;58.364;25.582;2023-09-19T15:11:25;11.05;;;7.22;;
59766;SDS011;46248;58.364;25.582;2023-09-19T15:14:47;12.82;;;8.75;;
59766;SDS011;46248;58.364;25.582;2023-09-19T15:18:09;12.68;;;8.15;;
59766;SDS011;46248;58.364;25.582;2023-09-19T15:21:32;10.88;;;8.57;;
59766;SDS011;46248;58.364;25.582;2023-09-19T15:24:54;12.27;;;8.85;;
59766;SDS011;46248;58.364;25.582;2023-09-19T15:28:17;10.82;;;8.27;;
59766;SDS011;46248;58.364;25.582;2023-09-19T15:31:42;16.25;;;9.73;;
59766;SDS011;46248;58.364;25.582;2023-09-19T15:35:05;10.10;;;8.32;;
59766;SDS011;46248;58.364;25.582;2023-09-19T15:38:28;24.23;;;12.48;;
59766;SDS011;46248;58.364;25.582;2023-09-19T15:41:50;12.65;;;9.02;;
59766;SDS011;46248;58.364;25.582;2023-09-19T15:45:13;15.57;;;9.82;;
59766;SDS011;46248;58.364;25.582;2023-09-19T15:48:36;8.93;;;7.05;;
59766;SDS011;46248;58.364;25.582;2023-09-19T15:51:58;12.98;;;9.23;;
59766;SDS011;46248;58.364;25.582;2023-09-19T15:55:20;11.82;;;8.05;;
59766;SDS011;46248;58.364;25.582;2023-09-19T15:58:43;6.78;;;5.65;;
59766;SDS011;46248;58.364;25.582;2023-09-19T16:02:07;7.05;;;4.90;;
59766;SDS011;46248;58.364;25.582;2023-09-19T16:05:34;4.93;;;3.95;;
59766;SDS011;46248;58.364;25.582;2023-09-19T16:08:57;6.03;;;4.75;;
59766;SDS011;46248;58.364;25.582;2023-09-19T16:12:23;6.72;;;5.40;;
59766;SDS011;46248;58.364;25.582;2023-09-19T16:15:45;8.90;;;7.20;;
59766;SDS011;46248;58.364;25.582;2023-09-19T16:19:09;9.80;;;6.70;;
59766;SDS011;46248;58.364;25.582;2023-09-19T16:27:18;8.60;;;6.35;;
59766;SDS011;46248;58.364;25.582;2023-09-19T16:30:41;7.50;;;4.75;;
59766;SDS011;46248;58.364;25.582;2023-09-19T16:34:03;23.73;;;15.73;;
59766;SDS011;46248;58.364;25.582;2023-09-19T16:37:26;8.68;;;7.03;;
59766;SDS011;46248;58.364;25.582;2023-09-19T16:40:51;5.45;;;3.72;;
59766;SDS011;46248;58.364;25.582;2023-09-19T16:44:13;28.75;;;17.25;;
59766;SDS011;46248;58.364;25.582;2023-09-19T16:47:36;12.88;;;7.97;;
59766;SDS011;46248;58.364;25.582;2023-09-19T16:50:59;15.98;;;10.82;;
59766;SDS011;46248;58.364;25.582;2023-09-19T16:54:25;7.57;;;4.93;;
59766;SDS011;46248;58.364;25.582;2023-09-19T16:57:47;6.70;;;4.22;;
59766;SDS011;46248;58.364;25.582;2023-09-19T17:01:08;9.98;;;7.63;;
59766;SDS011;46248;58.364;25.582;2023-09-19T17:04:31;6.45;;;3.80;;
59766;SDS011;46248;58.364;25.582;2023-09-19T17:07:53;4.65;;;3.60;;
59766;SDS011;46248;58.364;25.582;2023-09-19T17:11:17;4.93;;;3.20;;
59766;SDS011;46248;58.364;25.582;2023-09-19T17:14:41;5.70;;;4.22;;
59766;SDS011;46248;58.364;25.582;2023-09-19T17:18:04;5.70;;;4.00;;
59766;SDS011;46248;58.364;25.582;2023-09-19T17:21:26;7.60;;;5.03;;
59766;SDS011;46248;58.364;25.582;2023-09-19T17:24:48;7.63;;;5.40;;
59766;SDS011;46248;58.364;25.582;2023-09-19T17:28:12;5.40;;;4.07;;
59766;SDS011;46248;58.364;25.582;2023-09-19T17:31:34;7.93;;;5.57;;
59766;SDS011;46248;58.364;25.582;2023-09-19T17:34:56;5.82;;;4.88;;
59766;SDS011;46248;58.364;25.582;2023-09-19T17:38:18;7.40;;;5.28;;
59766;SDS011;46248;58.364;25.582;2023-09-19T17:41:40;5.57;;;4.35;;
59766;SDS011;46248;58.364;25.582;2023-09-19T17:45:04;8.73;;;5.82;;
59766;SDS011;46248;58.364;25.582;2023-09-19T17:48:27;10.13;;;5.30;;
59766;SDS011;46248;58.364;25.582;2023-09-19T17:51:49;9.07;;;5.57;;
59766;SDS011;46248;58.364;25.582;2023-09-19T17:55:11;8.77;;;5.55;;
59766;SDS011;46248;58.364;25.582;2023-09-19T17:58:34;7.93;;;6.03;;
59766;SDS011;46248;58.364;25.582;2023-09-19T18:01:57;9.88;;;6.47;;
59766;SDS011;46248;58.364;25.582;2023-09-19T18:05:19;7.93;;;5.53;;
59766;SDS011;46248;58.364;25.582;2023-09-19T18:08:41;8.38;;;5.70;;
59766;SDS011;46248;58.364;25.582;2023-09-19T18:12:04;8.35;;;5.85;;
59766;SDS011;46248;58.364;25.582;2023-09-19T18:15:26;9.65;;;6.07;;
59766;SDS011;46248;58.364;25.582;2023-09-19T18:18:54;8.23;;;5.40;;
59766;SDS011;46248;58.364;25.582;2023-09-19T18:22:16;9.23;;;5.45;;
59766;SDS011;46248;58.364;25.582;2023-09-19T18:25:38;8.48;;;4.82;;
59766;SDS011;46248;58.364;25.582;2023-09-19T18:29:00;6.40;;;4.47;;
59766;SDS011;46248;58.364;25.582;2023-09-19T18:32:26;9.00;;;6.03;;
59766;SDS011;46248;58.364;25.582;2023-09-19T18:35:50;9.05;;;5.47;;
59766;SDS011;46248;58.364;25.582;2023-09-19T18:39:11;7.50;;;4.38;;
59766;SDS011;46248;58.364;25.582;2023-09-19T18:42:35;7.43;;;4.65;;
59766;SDS011;46248;58.364;25.582;2023-09-19T18:45:57;6.70;;;5.25;;
59766;SDS011;46248;58.364;25.582;2023-09-19T18:49:19;6.80;;;4.65;;
59766;SDS011;46248;58.364;25.582;2023-09-19T18:52:44;6.75;;;4.25;;
59766;SDS011;46248;58.364;25.582;2023-09-19T18:56:07;7.63;;;4.45;;
59766;SDS011;46248;58.364;25.582;2023-09-19T18:59:30;7.82;;;3.70;;
59766;SDS011;46248;58.364;25.582;2023-09-19T19:02:53;4.50;;;3.45;;
59766;SDS011;46248;58.364;25.582;2023-09-19T19:06:15;7.00;;;3.28;;
59766;SDS011;46248;58.364;25.582;2023-09-19T19:09:38;8.50;;;3.47;;
59766;SDS011;46248;58.364;25.582;2023-09-19T19:13:01;5.53;;;3.20;;
59766;SDS011;46248;58.364;25.582;2023-09-19T19:16:23;6.60;;;3.10;;
59766;SDS011;46248;58.364;25.582;2023-09-19T19:19:46;4.95;;;2.60;;
59766;SDS011;46248;58.364;25.582;2023-09-19T19:23:11;7.43;;;3.05;;
59766;SDS011;46248;58.364;25.582;2023-09-19T19:26:34;5.07;;;2.80;;
59766;SDS011;46248;58.364;25.582;2023-09-19T19:29:56;4.95;;;2.40;;
59766;SDS011;46248;58.364;25.582;2023-09-19T19:33:18;3.75;;;2.50;;
59766;SDS011;46248;58.364;25.582;2023-09-19T19:36:42;6.28;;;2.60;;
59766;SDS011;46248;58.364;25.582;2023-09-19T19:40:05;7.55;;;2.40;;
59766;SDS011;46248;58.364;25.582;2023-09-19T19:43:31;6.13;;;2.72;;
59766;SDS011;46248;58.364;25.582;2023-09-19T19:46:55;4.95;;;2.55;;
59766;SDS011;46248;58.364;25.582;2023-09-19T19:50:17;6.63;;;2.47;;
59766;SDS011;46248;58.364;25.582;2023-09-19T19:53:39;4.25;;;2.28;;
59766;SDS011;46248;58.364;25.582;2023-09-19T19:57:01;7.10;;;2.42;;
59766;SDS011;46248;58.364;25.582;2023-09-19T20:00:25;3.92;;;2.13;;
59766;SDS011;46248;58.364;25.582;2023-09-19T20:03:50;4.20;;;1.90;;
59766;SDS011;46248;58.364;25.582;2023-09-19T20:07:13;6.28;;;2.10;;
59766;SDS011;46248;58.364;25.582;2023-09-19T20:10:35;5.03;;;2.17;;
59766;SDS011;46248;58.364;25.582;2023-09-19T20:13:59;6.35;;;2.63;;
59766;SDS011;46248;58.364;25.582;2023-09-19T20:17:24;5.85;;;2.30;;
59766;SDS011;46248;58.364;25.582;2023-09-19T20:20:48;5.13;;;1.90;;
59766;SDS011;46248;58.364;25.582;2023-09-19T20:24:11;7.30;;;2.67;;
59766;SDS011;46248;58.364;25.582;2023-09-19T20:27:40;3.92;;;2.00;;
59766;SDS011;46248;58.364;25.582;2023-09-19T20:31:04;5.30;;;2.08;;